createdAt,value
2019-05-03T00:01:34.675Z,6.30
2019-05-03T00:04:03.986Z,7.20
2019-05-03T00:06:33.488Z,7.90
2019-05-03T00:09:02.506Z,6.63
2019-05-03T00:11:32.712Z,7.83
2019-05-03T00:14:01.757Z,7.90
2019-05-03T00:16:34.102Z,7.33
2019-05-03T00:19:03.377Z,7.63
2019-05-03T00:21:32.792Z,7.47
2019-05-03T00:24:02.490Z,8.17
2019-05-03T00:26:31.871Z,7.80
2019-05-03T00:29:02.196Z,8.13
2019-05-03T00:31:31.865Z,8.67
2019-05-03T00:34:05.548Z,8.70
2019-05-03T00:36:42.684Z,6.83
2019-05-03T00:39:26.083Z,10.63
2019-05-03T00:41:55.343Z,8.60
2019-05-03T00:44:24.142Z,6.93
2019-05-03T00:46:53.654Z,10.27
2019-05-03T00:49:22.677Z,7.47
2019-05-03T00:51:51.768Z,10.40
2019-05-03T00:54:22.308Z,7.50
2019-05-03T00:56:52.258Z,10.30
2019-05-03T00:59:22.111Z,10.90
2019-05-03T01:01:52.170Z,8.87
2019-05-03T01:04:22.323Z,12.67
2019-05-03T01:06:52.705Z,10.20
2019-05-03T01:09:23.365Z,8.50
2019-05-03T01:11:52.564Z,9.10
2019-05-03T01:14:22.597Z,8.10
2019-05-03T01:16:52.188Z,8.77
2019-05-03T01:19:22.735Z,8.73
2019-05-03T01:21:51.639Z,10.80
2019-05-03T01:24:21.730Z,12.10
2019-05-03T01:26:52.539Z,11.97
2019-05-03T01:29:22.768Z,11.60
2019-05-03T01:31:52.803Z,13.90
2019-05-03T01:34:22.043Z,12.03
2019-05-03T01:36:51.887Z,12.40
2019-05-03T01:39:22.254Z,12.63
2019-05-03T01:41:51.928Z,12.10
2019-05-03T01:44:22.020Z,12.70
2019-05-03T01:46:52.728Z,13.13
2019-05-03T01:49:29.844Z,10.83
2019-05-03T01:52:12.867Z,14.70
2019-05-03T01:54:42.684Z,14.70
2019-05-03T01:57:11.757Z,9.17
2019-05-03T01:59:42.467Z,9.90
2019-05-03T02:02:30.219Z,7.87
2019-05-03T02:05:16.884Z,9.60
2019-05-03T02:07:48.488Z,7.53
2019-05-03T02:10:16.739Z,6.77
2019-05-03T02:12:45.763Z,6.10
2019-05-03T02:15:15.378Z,7.93
2019-05-03T02:17:44.260Z,7.33
2019-05-03T02:20:13.299Z,7.70
2019-05-03T02:22:42.779Z,6.40
2019-05-03T02:25:12.413Z,7.00
2019-05-03T02:27:42.310Z,7.40
2019-05-03T02:30:14.317Z,6.70
2019-05-03T02:32:43.912Z,6.20
2019-05-03T02:35:14.153Z,4.20
2019-05-03T02:37:45.028Z,5.10
2019-05-03T02:40:14.288Z,5.83
2019-05-03T02:42:46.355Z,5.10
2019-05-03T02:45:25.718Z,5.20
2019-05-03T02:48:00.659Z,5.70
2019-05-03T02:50:29.516Z,5.73
2019-05-03T02:52:58.740Z,5.20
2019-05-03T02:55:27.626Z,6.30
2019-05-03T02:57:56.854Z,6.23
2019-05-03T03:00:49.349Z,5.30
2019-05-03T03:03:18.312Z,4.70
2019-05-03T03:05:48.021Z,4.40
2019-05-03T03:08:18.202Z,4.93
2019-05-03T03:10:47.668Z,5.13
2019-05-03T03:13:17.618Z,5.00
2019-05-03T03:15:47.768Z,5.23
2019-05-03T03:18:18.478Z,4.47
2019-05-03T03:20:49.973Z,4.57
2019-05-03T03:23:20.583Z,4.77
2019-05-03T03:25:55.650Z,4.80
2019-05-03T03:28:25.567Z,5.07
2019-05-03T03:31:28.497Z,4.92
2019-05-03T03:33:59.101Z,4.73
2019-05-03T03:36:43.616Z,3.73
2019-05-03T03:38:59.099Z,5.00
2019-05-03T03:41:29.805Z,4.62
2019-05-03T03:43:58.713Z,4.70
2019-05-03T03:46:31.861Z,4.40
2019-05-03T03:49:00.391Z,4.80
2019-05-03T03:51:34.935Z,4.35
2019-05-03T03:54:06.054Z,4.30
2019-05-03T03:56:53.762Z,5.00
2019-05-03T03:59:07.940Z,4.30
2019-05-03T04:01:36.941Z,5.20
2019-05-03T04:04:06.118Z,4.40
2019-05-03T04:06:41.076Z,4.87
2019-05-03T04:09:10.691Z,3.83
2019-05-03T04:11:39.870Z,4.95
2019-05-03T04:14:12.190Z,4.10
2019-05-03T04:16:50.131Z,5.73
2019-05-03T04:19:25.115Z,4.50
2019-05-03T04:21:56.176Z,4.05
2019-05-03T04:24:25.988Z,4.53
2019-05-03T04:27:18.556Z,5.00
2019-05-03T04:29:38.777Z,5.45
2019-05-03T04:32:08.829Z,4.60
2019-05-03T04:34:38.205Z,4.55
2019-05-03T04:37:07.170Z,5.05
2019-05-03T04:39:36.332Z,4.60
2019-05-03T04:42:06.696Z,4.37
2019-05-03T04:44:36.208Z,5.28
2019-05-03T04:47:06.919Z,6.33
2019-05-03T04:49:36.546Z,6.17
2019-05-03T04:52:06.132Z,6.53
2019-05-03T04:55:00.248Z,6.87
2019-05-03T04:57:39.739Z,6.67
2019-05-03T04:59:59.867Z,6.80
2019-05-03T05:02:28.770Z,5.40
2019-05-03T05:04:57.685Z,6.40
2019-05-03T05:07:26.745Z,6.30
2019-05-03T05:09:56.488Z,7.47
2019-05-03T05:12:27.319Z,6.80
2019-05-03T05:14:56.689Z,5.90
2019-05-03T05:17:42.262Z,6.57
2019-05-03T05:20:18.415Z,7.23
2019-05-03T05:22:47.315Z,6.63
2019-05-03T05:25:19.480Z,6.80
2019-05-03T05:28:15.049Z,6.97
2019-05-03T05:30:44.442Z,7.50
2019-05-03T05:33:22.726Z,7.57
2019-05-03T05:35:52.066Z,6.33
2019-05-03T05:38:21.040Z,8.47
2019-05-03T05:40:50.035Z,10.83
2019-05-03T05:43:19.039Z,8.40
2019-05-03T05:45:48.493Z,11.20
2019-05-03T05:48:24.505Z,10.70
2019-05-03T05:50:55.273Z,11.23
2019-05-03T05:53:25.356Z,11.57
2019-05-03T05:56:16.655Z,10.40
2019-05-03T05:59:09.263Z,9.70
2019-05-03T06:01:45.663Z,8.47
2019-05-03T06:04:15.378Z,9.40
2019-05-03T06:07:22.257Z,8.60
2019-05-03T06:10:14.671Z,10.87
2019-05-03T06:12:58.603Z,9.27
2019-05-03T06:15:51.802Z,9.80
2019-05-03T06:18:42.819Z,9.67
2019-05-03T06:21:28.863Z,8.67
2019-05-03T06:24:02.141Z,9.63
2019-05-03T06:26:48.387Z,8.40
2019-05-03T06:29:17.395Z,8.60
2019-05-03T06:31:55.054Z,8.80
2019-05-03T06:34:25.235Z,8.20
2019-05-03T06:36:55.899Z,7.03
2019-05-03T06:39:25.002Z,6.77
2019-05-03T06:41:55.038Z,5.97
2019-05-03T06:44:28.274Z,6.37
2019-05-03T06:46:55.246Z,4.60
2019-05-03T06:49:25.552Z,4.60
2019-05-03T06:51:55.170Z,5.30
2019-05-03T06:54:26.928Z,3.57
2019-05-03T06:56:55.487Z,3.80
2019-05-03T06:59:29.916Z,3.27
2019-05-03T07:02:25.148Z,4.20
2019-05-03T07:04:56.208Z,3.83
2019-05-03T07:07:37.912Z,2.67
2019-05-03T07:10:29.043Z,4.47
2019-05-03T07:12:58.355Z,4.00
2019-05-03T07:15:27.655Z,3.53
2019-05-03T07:17:56.611Z,2.60
2019-05-03T07:20:25.982Z,5.67
2019-05-03T07:22:55.856Z,5.30
2019-05-03T07:25:25.743Z,4.40
2019-05-03T07:27:55.509Z,5.60
2019-05-03T07:30:25.113Z,5.67
2019-05-03T07:32:59.599Z,4.37
2019-05-03T07:35:28.802Z,5.37
2019-05-03T07:37:57.587Z,5.30
2019-05-03T07:40:26.516Z,4.33
2019-05-03T07:42:55.792Z,5.07
2019-05-03T07:45:25.554Z,5.50
2019-05-03T07:47:55.834Z,4.50
2019-05-03T07:50:25.978Z,6.07
2019-05-03T07:52:55.835Z,5.50
2019-05-03T07:55:54.758Z,5.33
2019-05-03T07:58:25.284Z,5.10
2019-05-03T08:01:06.189Z,5.97
2019-05-03T08:03:27.617Z,8.23
2019-05-03T08:05:56.644Z,4.80
2019-05-03T08:08:25.472Z,5.70
2019-05-03T08:10:55.072Z,4.57
2019-05-03T08:13:25.356Z,5.20
2019-05-03T08:15:55.812Z,5.90
2019-05-03T08:18:25.819Z,5.17
2019-05-03T08:20:55.655Z,6.13
2019-05-03T08:23:29.918Z,4.97
2019-05-03T08:25:55.759Z,4.97
2019-05-03T08:28:24.815Z,14.97
2019-05-03T08:31:11.472Z,6.20
2019-05-03T08:33:50.715Z,5.27
2019-05-03T08:36:19.767Z,5.47
2019-05-03T08:38:49.236Z,5.47
2019-05-03T08:41:20.093Z,4.93
2019-05-03T08:43:49.084Z,5.50
2019-05-03T08:46:17.970Z,5.97
2019-05-03T08:48:46.873Z,4.23
2019-05-03T08:51:16.177Z,4.03
2019-05-03T08:53:46.041Z,4.40
2019-05-03T08:56:15.692Z,4.23
2019-05-03T08:58:45.197Z,4.10
2019-05-03T09:01:14.956Z,4.30
2019-05-03T09:03:45.616Z,4.13
2019-05-03T09:06:15.415Z,3.77
2019-05-03T09:08:45.788Z,4.07
2019-05-03T09:11:16.067Z,4.10
2019-05-03T09:13:52.125Z,4.13
2019-05-03T09:16:21.153Z,3.97
2019-05-03T09:18:50.096Z,2.93
2019-05-03T09:21:19.274Z,3.90
2019-05-03T09:23:48.055Z,3.23
2019-05-03T09:26:19.010Z,3.10
2019-05-03T09:28:48.291Z,4.10
2019-05-03T09:31:17.541Z,3.27
2019-05-03T09:33:46.769Z,3.83
2019-05-03T09:36:15.743Z,3.60
2019-05-03T09:38:45.745Z,4.17
2019-05-03T09:41:15.189Z,3.60
2019-05-03T09:43:45.011Z,3.27
2019-05-03T09:46:14.664Z,4.03
2019-05-03T09:48:45.452Z,3.33
2019-05-03T09:51:14.986Z,3.70
2019-05-03T09:53:58.363Z,3.83
2019-05-03T09:56:55.011Z,4.60
2019-05-03T09:59:16.324Z,3.90
2019-05-03T10:01:45.793Z,4.00
2019-05-03T10:04:17.789Z,3.67
2019-05-03T10:06:45.393Z,2.40
2019-05-03T10:09:15.455Z,3.80
2019-05-03T10:11:45.892Z,4.20
2019-05-03T10:14:15.606Z,3.70
2019-05-03T10:16:54.741Z,4.33
2019-05-03T10:19:34.795Z,3.00
2019-05-03T10:21:54.481Z,3.60
2019-05-03T10:24:23.293Z,4.50
2019-05-03T10:26:55.090Z,4.70
2019-05-03T10:29:25.079Z,4.17
2019-05-03T10:32:04.677Z,3.80
2019-05-03T10:34:35.320Z,3.63
2019-05-03T10:37:05.747Z,4.17
2019-05-03T10:39:36.210Z,3.53
2019-05-03T10:42:05.290Z,2.37
2019-05-03T10:44:35.703Z,3.40
2019-05-03T10:47:05.599Z,2.97
2019-05-03T10:49:35.269Z,2.30
2019-05-03T10:52:06.344Z,3.87
2019-05-03T10:54:35.993Z,2.50
2019-05-03T10:57:11.209Z,2.93
2019-05-03T10:59:40.387Z,3.63
2019-05-03T11:02:27.261Z,3.30
2019-05-03T11:04:56.625Z,2.90
2019-05-03T11:07:25.776Z,2.43
2019-05-03T11:09:55.244Z,3.00
2019-05-03T11:12:25.467Z,2.80
2019-05-03T11:14:54.471Z,1.40
2019-05-03T11:17:22.929Z,2.77
2019-05-03T11:19:51.985Z,3.00
2019-05-03T11:22:20.921Z,2.83
2019-05-03T11:24:50.085Z,2.03
2019-05-03T11:27:35.369Z,2.30
2019-05-03T11:30:04.990Z,2.80
2019-05-03T11:32:44.751Z,2.20
2019-05-03T11:35:21.061Z,1.70
2019-05-03T11:37:54.231Z,2.90
2019-05-03T11:40:25.006Z,2.00
2019-05-03T11:42:55.551Z,3.47
2019-05-03T11:45:24.823Z,3.10
2019-05-03T11:47:55.045Z,2.03
2019-05-03T11:50:25.302Z,1.53
2019-05-03T11:52:55.378Z,2.33
2019-05-03T11:55:26.854Z,2.10
2019-05-03T11:57:56.633Z,2.40
2019-05-03T12:00:33.481Z,1.90
2019-05-03T12:03:08.799Z,2.10
2019-05-03T12:05:38.021Z,2.70
2019-05-03T12:08:07.043Z,2.20
2019-05-03T12:10:50.253Z,2.00
2019-05-03T12:13:12.039Z,2.00
2019-05-03T12:15:41.567Z,1.37
2019-05-03T12:18:10.971Z,2.40
2019-05-03T12:20:41.204Z,1.83
2019-05-03T12:23:11.738Z,2.30
2019-05-03T12:25:41.698Z,1.70
2019-05-03T12:28:11.340Z,2.07
2019-05-03T12:30:40.250Z,2.60
2019-05-03T12:33:09.783Z,2.53
2019-05-03T12:35:38.768Z,3.23
2019-05-03T12:38:07.790Z,2.10
2019-05-03T12:40:36.774Z,1.60
2019-05-03T12:43:06.274Z,2.00
2019-05-03T12:45:35.607Z,1.50
2019-05-03T12:48:05.131Z,1.23
2019-05-03T12:50:34.826Z,2.30
2019-05-03T12:53:04.741Z,1.70
2019-05-03T12:55:35.585Z,2.33
2019-05-03T12:58:06.434Z,2.00
2019-05-03T13:00:55.694Z,2.40
2019-05-03T13:03:52.856Z,2.43
2019-05-03T13:06:22.573Z,1.80
2019-05-03T13:08:51.662Z,1.60
2019-05-03T13:11:20.587Z,1.97
2019-05-03T13:13:49.608Z,2.20
2019-05-03T13:16:20.397Z,2.33
2019-05-03T13:18:49.296Z,2.33
2019-05-03T13:21:18.289Z,2.40
2019-05-03T13:23:47.193Z,1.60
2019-05-03T13:26:16.051Z,1.97
2019-05-03T13:28:45.678Z,2.50
2019-05-03T13:31:16.179Z,2.10
2019-05-03T13:33:45.526Z,2.63
2019-05-03T13:36:15.250Z,3.03
2019-05-03T13:38:45.317Z,2.10
2019-05-03T13:41:14.453Z,2.40
2019-05-03T13:43:45.454Z,1.60
2019-05-03T13:46:15.671Z,2.50
2019-05-03T13:48:48.935Z,2.40
2019-05-03T13:51:16.700Z,2.23
2019-05-03T13:53:46.252Z,2.10
2019-05-03T13:56:15.366Z,2.00
2019-05-03T13:58:44.627Z,2.40
2019-05-03T14:01:14.761Z,2.60
2019-05-03T14:03:45.247Z,3.43
2019-05-03T14:06:14.519Z,2.70
2019-05-03T14:08:45.374Z,2.07
2019-05-03T14:11:15.573Z,1.80
2019-05-03T14:13:44.718Z,1.40
2019-05-03T14:16:14.443Z,1.73
2019-05-03T14:18:45.646Z,1.90
2019-05-03T14:21:24.334Z,1.57
2019-05-03T14:24:12.319Z,1.10
2019-05-03T14:26:42.185Z,1.37
2019-05-03T14:29:11.100Z,1.87
2019-05-03T14:31:40.093Z,2.07
2019-05-03T14:34:09.107Z,2.20
2019-05-03T14:36:38.385Z,2.30
2019-05-03T14:39:09.937Z,2.47
2019-05-03T14:41:39.612Z,1.90
2019-05-03T14:44:08.783Z,2.17
2019-05-03T14:46:38.179Z,2.20
2019-05-03T14:49:07.403Z,1.80
2019-05-03T14:51:36.524Z,2.10
2019-05-03T14:54:06.271Z,2.40
2019-05-03T14:56:42.150Z,1.57
2019-05-03T14:59:29.033Z,1.40
2019-05-03T15:02:05.264Z,1.77
2019-05-03T15:04:35.103Z,2.27
2019-05-03T15:07:06.101Z,1.90
2019-05-03T15:09:35.408Z,1.80
2019-05-03T15:12:05.352Z,1.70
2019-05-03T15:14:34.743Z,1.67
2019-05-03T15:17:05.301Z,2.10
2019-05-03T15:19:35.702Z,2.03
2019-05-03T15:22:05.614Z,1.80
2019-05-03T15:24:35.073Z,2.20
2019-05-03T15:27:04.829Z,2.00
2019-05-03T15:29:35.532Z,1.80
2019-05-03T15:32:05.245Z,2.00
2019-05-03T15:34:35.586Z,2.07
2019-05-03T15:37:05.416Z,1.60
2019-05-03T15:39:35.253Z,2.00
2019-05-03T15:42:05.270Z,2.40
2019-05-03T15:44:59.469Z,1.67
2019-05-03T15:47:36.126Z,1.80
2019-05-03T15:50:05.577Z,3.07
2019-05-03T15:52:35.283Z,2.00
2019-05-03T15:55:06.263Z,1.83
2019-05-03T15:57:35.720Z,2.63
2019-05-03T16:00:05.720Z,2.10
2019-05-03T16:02:35.213Z,2.23
2019-05-03T16:05:04.975Z,2.13
2019-05-03T16:07:35.517Z,2.30
2019-05-03T16:10:05.379Z,1.83
2019-05-03T16:12:34.739Z,1.60
2019-05-03T16:15:04.653Z,2.00
2019-05-03T16:17:35.306Z,1.87
2019-05-03T16:20:05.264Z,1.80
2019-05-03T16:22:34.036Z,1.90
2019-05-03T16:25:04.886Z,2.30
2019-05-03T16:27:55.291Z,2.00
2019-05-03T16:30:42.871Z,2.60
2019-05-03T16:33:23.900Z,2.50
2019-05-03T16:35:44.479Z,2.00
2019-05-03T16:38:15.632Z,2.60
2019-05-03T16:40:45.119Z,2.30
2019-05-03T16:43:16.158Z,2.10
2019-05-03T16:45:47.247Z,2.17
2019-05-03T16:48:18.397Z,2.07
2019-05-03T16:50:47.621Z,2.60
2019-05-03T16:53:16.695Z,2.10
2019-05-03T16:55:45.615Z,2.40
2019-05-03T16:58:16.971Z,2.10
2019-05-03T17:00:46.199Z,3.93
2019-05-03T17:03:17.200Z,2.10
2019-05-03T17:05:56.980Z,2.60
2019-05-03T17:08:48.129Z,2.73
2019-05-03T17:11:19.510Z,1.50
2019-05-03T17:13:55.072Z,2.50
2019-05-03T17:16:24.893Z,2.40
2019-05-03T17:18:55.169Z,2.90
2019-05-03T17:21:25.440Z,2.80
2019-05-03T17:23:54.584Z,2.47
2019-05-03T17:26:24.875Z,2.33
2019-05-03T17:28:55.485Z,3.00
2019-05-03T17:31:24.507Z,2.20
2019-05-03T17:33:56.511Z,2.27
2019-05-03T17:36:25.035Z,3.00
2019-05-03T17:38:56.883Z,2.70
2019-05-03T17:41:40.640Z,2.70
2019-05-03T17:44:14.559Z,2.73
2019-05-03T17:46:45.358Z,2.53
2019-05-03T17:49:14.845Z,2.50
2019-05-03T17:52:11.815Z,2.37
2019-05-03T17:54:59.826Z,2.77
2019-05-03T17:57:39.459Z,2.50
2019-05-03T18:00:27.480Z,2.50
2019-05-03T18:02:56.930Z,2.70
2019-05-03T18:05:38.429Z,2.73
2019-05-03T18:08:26.515Z,3.87
2019-05-03T18:11:04.429Z,2.50
2019-05-03T18:13:35.255Z,4.00
2019-05-03T18:16:04.844Z,3.20
2019-05-03T18:18:35.279Z,3.77
2019-05-03T18:21:04.881Z,2.57
2019-05-03T18:23:35.165Z,2.77
2019-05-03T18:26:05.301Z,2.43
2019-05-03T18:28:35.624Z,2.80
2019-05-03T18:31:05.769Z,2.10
2019-05-03T18:33:35.956Z,2.40
2019-05-03T18:36:05.618Z,2.77
2019-05-03T18:38:40.412Z,2.80
2019-05-03T18:41:11.330Z,2.60
2019-05-03T18:43:57.893Z,3.90
2019-05-03T18:46:29.454Z,2.83
2019-05-03T18:48:58.363Z,2.33
2019-05-03T18:51:27.483Z,3.20
2019-05-03T18:53:56.443Z,2.60
2019-05-03T18:56:25.412Z,2.23
2019-05-03T18:58:54.685Z,2.63
2019-05-03T19:01:25.334Z,2.67
2019-05-03T19:03:58.981Z,2.70
2019-05-03T19:06:28.113Z,2.47
2019-05-03T19:09:17.868Z,2.17
2019-05-03T19:11:54.919Z,2.50
2019-05-03T19:14:25.469Z,2.60
2019-05-03T19:17:07.613Z,2.50
2019-05-03T19:19:39.913Z,3.10
2019-05-03T19:22:09.088Z,2.80
2019-05-03T19:24:38.262Z,3.10
2019-05-03T19:27:08.891Z,2.67
2019-05-03T19:29:38.127Z,3.93
2019-05-03T19:32:07.187Z,3.00
2019-05-03T19:34:47.703Z,2.93
2019-05-03T19:37:07.360Z,3.27
2019-05-03T19:39:36.336Z,2.40
2019-05-03T19:42:05.470Z,2.70
2019-05-03T19:44:35.232Z,3.50
2019-05-03T19:47:06.727Z,3.17
2019-05-03T19:49:35.975Z,3.07
2019-05-03T19:52:05.273Z,3.13
2019-05-03T19:54:36.557Z,3.50
2019-05-03T19:57:05.450Z,3.30
2019-05-03T19:59:56.932Z,3.70
2019-05-03T20:02:39.131Z,3.30
2019-05-03T20:05:45.752Z,3.80
2019-05-03T20:08:22.124Z,3.97
2019-05-03T20:10:54.635Z,4.80
2019-05-03T20:13:32.623Z,4.50
2019-05-03T20:15:55.535Z,4.03
2019-05-03T20:18:25.318Z,4.40
2019-05-03T20:20:55.298Z,4.77
2019-05-03T20:23:25.178Z,3.83
2019-05-03T20:25:54.618Z,3.90
2019-05-03T20:28:24.744Z,3.43
2019-05-03T20:30:54.538Z,3.80
2019-05-03T20:33:24.626Z,5.30
2019-05-03T20:35:56.179Z,4.50
2019-05-03T20:38:24.692Z,4.87
2019-05-03T20:40:57.140Z,6.07
2019-05-03T20:44:02.191Z,4.20
2019-05-03T20:46:50.209Z,4.47
2019-05-03T20:49:19.952Z,4.20
2019-05-03T20:51:51.293Z,4.33
2019-05-03T20:54:19.294Z,4.70
2019-05-03T20:56:48.754Z,4.50
2019-05-03T20:59:17.770Z,5.63
2019-05-03T21:01:46.808Z,5.20
2019-05-03T21:04:15.759Z,4.60
2019-05-03T21:06:45.421Z,5.00
2019-05-03T21:09:15.032Z,4.83
2019-05-03T21:11:44.771Z,5.47
2019-05-03T21:14:15.614Z,4.50
2019-05-03T21:16:59.332Z,5.30
2019-05-03T21:19:38.995Z,4.83
2019-05-03T21:22:15.043Z,4.73
2019-05-03T21:24:49.829Z,5.90
2019-05-03T21:27:19.030Z,5.40
2019-05-03T21:29:55.323Z,5.97
2019-05-03T21:32:25.266Z,5.37
2019-05-03T21:34:57.176Z,5.40
2019-05-03T21:37:26.406Z,5.90
2019-05-03T21:39:58.531Z,5.70
2019-05-03T21:42:28.014Z,7.50
2019-05-03T21:44:57.162Z,6.07
2019-05-03T21:47:41.660Z,7.10
2019-05-03T21:50:16.276Z,6.33
2019-05-03T21:52:47.461Z,6.47
2019-05-03T21:55:16.645Z,7.37
2019-05-03T21:57:45.924Z,7.30
2019-05-03T22:00:21.118Z,7.63
2019-05-03T22:02:51.855Z,6.90
2019-05-03T22:05:20.961Z,8.70
2019-05-03T22:07:50.665Z,7.10
2019-05-03T22:10:19.734Z,7.30
2019-05-03T22:12:51.619Z,6.87
2019-05-03T22:15:44.923Z,7.23
2019-05-03T22:18:24.614Z,7.77
2019-05-03T22:21:19.273Z,6.93
2019-05-03T22:24:14.872Z,7.00
2019-05-03T22:26:59.117Z,7.83
2019-05-03T22:29:28.600Z,8.10
2019-05-03T22:31:57.426Z,8.13
2019-05-03T22:34:26.532Z,7.87
2019-05-03T22:36:55.443Z,7.67
2019-05-03T22:39:25.167Z,8.50
2019-05-03T22:41:54.422Z,8.33
2019-05-03T22:44:25.223Z,8.17
2019-05-03T22:46:55.113Z,8.33
2019-05-03T22:49:25.944Z,8.73
2019-05-03T22:51:55.353Z,8.43
2019-05-03T22:54:24.671Z,8.07
2019-05-03T22:56:55.534Z,9.03
2019-05-03T22:59:25.355Z,8.20
2019-05-03T23:01:54.822Z,7.70
2019-05-03T23:04:25.349Z,8.60
2019-05-03T23:06:55.517Z,7.70
2019-05-03T23:09:25.096Z,8.60
2019-05-03T23:11:55.262Z,8.80
2019-05-03T23:14:25.472Z,9.27
2019-05-03T23:16:54.825Z,8.97
2019-05-03T23:19:23.916Z,10.80
2019-05-03T23:22:01.724Z,8.70
2019-05-03T23:24:30.843Z,9.63
2019-05-03T23:26:59.747Z,10.50
2019-05-03T23:29:28.208Z,9.83
2019-05-03T23:31:57.104Z,10.07
2019-05-03T23:34:26.312Z,9.10
2019-05-03T23:36:55.504Z,9.60
2019-05-03T23:39:24.925Z,12.47
2019-05-03T23:41:55.995Z,13.00
2019-05-03T23:44:24.959Z,11.30
2019-05-03T23:47:10.115Z,12.53
2019-05-03T23:49:38.502Z,11.47
2019-05-03T23:52:25.773Z,13.00
2019-05-03T23:54:56.654Z,12.00
2019-05-03T23:57:25.311Z,12.10
2019-05-03T23:59:55.025Z,11.80
